Terminal Aerodrome Forecast
Issued by NWS

Home | Current Version | Previous Version | Text Only | Print | Product List | Glossary On
Versions: 1 2 3 4 5 6 7 8 9 10 11 12 13 14 15 16 17 18 19 20 21
745
FTUS46 KMTR 292356
TAFMRY
TAF
KMRY 292356Z 3000/3024 28008KT 6SM HZ FU SCT120
      TEMPO 3003/3005 2SM HZ FU BKN004 OVC008
     FM300500 24004KT 1/2SM FG VV001
     FM301700 29005KT 6SM HZ FU SCT005 BKN120=

USA.gov is the U.S. government's official web portal to all federal, state and local government web resources and services.